sensor_id;sensor_type;location;lat;lon;timestamp;temperature;humidity
70421;SHT31;57848;51.938;15.520;2022-10-16T00:02:19;13.97;94.34
70421;SHT31;57848;51.938;15.520;2022-10-16T00:04:44;13.99;94.26
70421;SHT31;57848;51.938;15.520;2022-10-16T00:07:09;13.97;94.23
70421;SHT31;57848;51.938;15.520;2022-10-16T00:09:35;14.03;94.22
70421;SHT31;57848;51.938;15.520;2022-10-16T00:12:00;14.04;94.22
70421;SHT31;57848;51.938;15.520;2022-10-16T00:14:25;14.13;93.99
70421;SHT31;57848;51.938;15.520;2022-10-16T00:16:50;14.16;93.86
70421;SHT31;57848;51.938;15.520;2022-10-16T00:19:16;14.21;93.82
70421;SHT31;57848;51.938;15.520;2022-10-16T00:21:41;14.24;93.71
70421;SHT31;57848;51.938;15.520;2022-10-16T00:24:08;14.21;93.91
70421;SHT31;57848;51.938;15.520;2022-10-16T00:26:34;14.24;93.80
70421;SHT31;57848;51.938;15.520;2022-10-16T00:29:00;14.16;93.99
70421;SHT31;57848;51.938;15.520;2022-10-16T00:31:26;14.14;94.06
70421;SHT31;57848;51.938;15.520;2022-10-16T00:33:52;14.09;94.27
70421;SHT31;57848;51.938;15.520;2022-10-16T00:36:20;14.13;94.28
70421;SHT31;57848;51.938;15.520;2022-10-16T00:38:46;14.10;94.27
70421;SHT31;57848;51.938;15.520;2022-10-16T00:41:15;14.13;94.36
70421;SHT31;57848;51.938;15.520;2022-10-16T00:43:48;14.10;94.39
70421;SHT31;57848;51.938;15.520;2022-10-16T00:48:42;14.07;94.52
70421;SHT31;57848;51.938;15.520;2022-10-16T00:51:10;14.24;94.48
70421;SHT31;57848;51.938;15.520;2022-10-16T00:53:36;14.14;94.35
70421;SHT31;57848;51.938;15.520;2022-10-16T00:56:01;14.14;94.51
70421;SHT31;57848;51.938;15.520;2022-10-16T00:58:27;14.16;94.43
70421;SHT31;57848;51.938;15.520;2022-10-16T01:00:52;14.22;94.39
70421;SHT31;57848;51.938;15.520;2022-10-16T01:05:54;14.30;94.24
70421;SHT31;57848;51.938;15.520;2022-10-16T01:11:34;14.38;93.99
70421;SHT31;57848;51.938;15.520;2022-10-16T01:14:08;14.40;93.92
70421;SHT31;57848;51.938;15.520;2022-10-16T01:16:48;14.55;93.88
70421;SHT31;57848;51.938;15.520;2022-10-16T01:19:36;14.55;93.67
70421;SHT31;57848;51.938;15.520;2022-10-16T01:22:03;14.54;93.66
70421;SHT31;57848;51.938;15.520;2022-10-16T01:24:38;14.62;93.47
70421;SHT31;57848;51.938;15.520;2022-10-16T01:32:33;14.69;93.38
70421;SHT31;57848;51.938;15.520;2022-10-16T01:35:02;14.72;93.38
70421;SHT31;57848;51.938;15.520;2022-10-16T01:37:33;14.76;93.21
70421;SHT31;57848;51.938;15.520;2022-10-16T01:40:04;14.80;93.10
70421;SHT31;57848;51.938;15.520;2022-10-16T01:42:35;14.92;92.88
70421;SHT31;57848;51.938;15.520;2022-10-16T01:45:03;14.93;92.56
70421;SHT31;57848;51.938;15.520;2022-10-16T01:47:32;15.04;92.44
70421;SHT31;57848;51.938;15.520;2022-10-16T01:49:59;14.96;92.58
70421;SHT31;57848;51.938;15.520;2022-10-16T01:52:28;15.03;92.39
70421;SHT31;57848;51.938;15.520;2022-10-16T01:54:56;15.03;92.39
70421;SHT31;57848;51.938;15.520;2022-10-16T01:57:24;14.98;92.58
70421;SHT31;57848;51.938;15.520;2022-10-16T01:59:53;15.02;92.41
70421;SHT31;57848;51.938;15.520;2022-10-16T02:02:20;14.95;92.58
70421;SHT31;57848;51.938;15.520;2022-10-16T02:04:55;14.92;92.66
70421;SHT31;57848;51.938;15.520;2022-10-16T02:07:23;14.93;92.55
70421;SHT31;57848;51.938;15.520;2022-10-16T02:09:48;14.86;92.85
70421;SHT31;57848;51.938;15.520;2022-10-16T02:12:28;14.83;92.94
70421;SHT31;57848;51.938;15.520;2022-10-16T02:14:54;14.93;92.73
70421;SHT31;57848;51.938;15.520;2022-10-16T02:17:20;14.88;92.89
70421;SHT31;57848;51.938;15.520;2022-10-16T02:19:48;14.83;92.93
70421;SHT31;57848;51.938;15.520;2022-10-16T02:25:17;14.98;92.61
70421;SHT31;57848;51.938;15.520;2022-10-16T02:30:29;14.95;92.82
70421;SHT31;57848;51.938;15.520;2022-10-16T02:32:56;14.89;92.85
70421;SHT31;57848;51.938;15.520;2022-10-16T02:35:23;14.80;92.98
70421;SHT31;57848;51.938;15.520;2022-10-16T02:37:50;14.79;93.13
70421;SHT31;57848;51.938;15.520;2022-10-16T02:40:17;14.72;93.34
70421;SHT31;57848;51.938;15.520;2022-10-16T02:42:42;14.68;93.41
70421;SHT31;57848;51.938;15.520;2022-10-16T02:45:10;14.71;93.61
70421;SHT31;57848;51.938;15.520;2022-10-16T02:47:36;14.64;93.61
70421;SHT31;57848;51.938;15.520;2022-10-16T02:50:01;14.71;93.55
70421;SHT31;57848;51.938;15.520;2022-10-16T02:52:26;14.59;93.64
70421;SHT31;57848;51.938;15.520;2022-10-16T02:54:52;14.55;93.73
70421;SHT31;57848;51.938;15.520;2022-10-16T02:57:17;14.54;93.82
70421;SHT31;57848;51.938;15.520;2022-10-16T02:59:43;14.49;93.94
70421;SHT31;57848;51.938;15.520;2022-10-16T03:02:08;14.45;94.19
70421;SHT31;57848;51.938;15.520;2022-10-16T03:04:34;14.42;94.25
70421;SHT31;57848;51.938;15.520;2022-10-16T03:06:59;14.41;94.45
70421;SHT31;57848;51.938;15.520;2022-10-16T03:09:24;14.35;94.50
70421;SHT31;57848;51.938;15.520;2022-10-16T03:11:49;14.31;94.67
70421;SHT31;57848;51.938;15.520;2022-10-16T03:14:15;14.37;94.73
70421;SHT31;57848;51.938;15.520;2022-10-16T03:16:42;14.40;94.60
70421;SHT31;57848;51.938;15.520;2022-10-16T03:19:07;14.38;94.61
70421;SHT31;57848;51.938;15.520;2022-10-16T03:21:32;14.42;94.55
70421;SHT31;57848;51.938;15.520;2022-10-16T03:23:57;14.40;94.54
70421;SHT31;57848;51.938;15.520;2022-10-16T03:26:23;14.40;94.59
70421;SHT31;57848;51.938;15.520;2022-10-16T03:28:48;14.46;94.26
70421;SHT31;57848;51.938;15.520;2022-10-16T03:31:13;14.52;94.36
70421;SHT31;57848;51.938;15.520;2022-10-16T03:33:39;14.52;94.13
70421;SHT31;57848;51.938;15.520;2022-10-16T03:36:04;14.52;94.07
70421;SHT31;57848;51.938;15.520;2022-10-16T03:38:29;14.48;94.11
70421;SHT31;57848;51.938;15.520;2022-10-16T03:40:55;14.38;94.30
70421;SHT31;57848;51.938;15.520;2022-10-16T03:43:20;14.41;94.33
70421;SHT31;57848;51.938;15.520;2022-10-16T03:45:45;14.41;94.24
70421;SHT31;57848;51.938;15.520;2022-10-16T03:48:11;14.40;94.25
70421;SHT31;57848;51.938;15.520;2022-10-16T03:50:36;14.35;94.34
70421;SHT31;57848;51.938;15.520;2022-10-16T03:53:03;14.31;94.50
70421;SHT31;57848;51.938;15.520;2022-10-16T03:55:28;14.28;94.54
70421;SHT31;57848;51.938;15.520;2022-10-16T03:57:53;14.21;94.72
70421;SHT31;57848;51.938;15.520;2022-10-16T04:00:19;14.14;94.94
70421;SHT31;57848;51.938;15.520;2022-10-16T04:02:44;14.18;94.97
70421;SHT31;57848;51.938;15.520;2022-10-16T04:05:09;14.16;95.07
70421;SHT31;57848;51.938;15.520;2022-10-16T04:07:35;14.14;95.11
70421;SHT31;57848;51.938;15.520;2022-10-16T04:10:00;14.11;95.19
70421;SHT31;57848;51.938;15.520;2022-10-16T04:12:26;14.17;95.09
70421;SHT31;57848;51.938;15.520;2022-10-16T04:14:51;14.22;94.90
70421;SHT31;57848;51.938;15.520;2022-10-16T04:17:17;14.31;94.68
70421;SHT31;57848;51.938;15.520;2022-10-16T04:19:42;14.49;94.28
70421;SHT31;57848;51.938;15.520;2022-10-16T04:22:08;14.46;93.97
70421;SHT31;57848;51.938;15.520;2022-10-16T04:24:33;14.57;93.79
70421;SHT31;57848;51.938;15.520;2022-10-16T04:26:58;14.54;93.80
70421;SHT31;57848;51.938;15.520;2022-10-16T04:29:23;14.54;93.78
70421;SHT31;57848;51.938;15.520;2022-10-16T04:31:49;14.49;93.80
70421;SHT31;57848;51.938;15.520;2022-10-16T04:34:14;14.55;93.59
70421;SHT31;57848;51.938;15.520;2022-10-16T04:36:40;14.62;93.58
70421;SHT31;57848;51.938;15.520;2022-10-16T04:39:05;14.62;93.42
70421;SHT31;57848;51.938;15.520;2022-10-16T04:41:30;14.68;93.23
70421;SHT31;57848;51.938;15.520;2022-10-16T04:43:55;14.75;93.16
70421;SHT31;57848;51.938;15.520;2022-10-16T04:46:21;14.72;92.99
70421;SHT31;57848;51.938;15.520;2022-10-16T04:48:46;14.72;93.00
70421;SHT31;57848;51.938;15.520;2022-10-16T04:51:12;14.78;92.86
70421;SHT31;57848;51.938;15.520;2022-10-16T04:53:37;14.83;92.78
70421;SHT31;57848;51.938;15.520;2022-10-16T04:56:03;14.82;92.60
70421;SHT31;57848;51.938;15.520;2022-10-16T04:58:28;14.86;92.45
70421;SHT31;57848;51.938;15.520;2022-10-16T05:00:53;14.93;92.29
70421;SHT31;57848;51.938;15.520;2022-10-16T05:03:18;14.93;92.41
70421;SHT31;57848;51.938;15.520;2022-10-16T05:05:45;14.93;92.48
70421;SHT31;57848;51.938;15.520;2022-10-16T05:08:12;14.95;92.44
70421;SHT31;57848;51.938;15.520;2022-10-16T05:10:38;14.90;92.55
70421;SHT31;57848;51.938;15.520;2022-10-16T05:13:04;14.90;92.40
70421;SHT31;57848;51.938;15.520;2022-10-16T05:15:29;14.86;92.54
70421;SHT31;57848;51.938;15.520;2022-10-16T05:17:55;14.89;92.37
70421;SHT31;57848;51.938;15.520;2022-10-16T05:20:21;14.88;92.48
70421;SHT31;57848;51.938;15.520;2022-10-16T05:22:46;14.83;92.63
70421;SHT31;57848;51.938;15.520;2022-10-16T05:25:12;14.88;92.47
70421;SHT31;57848;51.938;15.520;2022-10-16T05:27:37;14.83;92.53
70421;SHT31;57848;51.938;15.520;2022-10-16T05:30:03;14.78;92.57
70421;SHT31;57848;51.938;15.520;2022-10-16T05:32:28;14.78;92.63
70421;SHT31;57848;51.938;15.520;2022-10-16T05:34:53;14.78;92.80
70421;SHT31;57848;51.938;15.520;2022-10-16T05:37:19;14.82;92.60
70421;SHT31;57848;51.938;15.520;2022-10-16T05:39:44;14.79;92.65
70421;SHT31;57848;51.938;15.520;2022-10-16T05:42:09;14.80;92.65
70421;SHT31;57848;51.938;15.520;2022-10-16T05:44:34;14.80;92.64
70421;SHT31;57848;51.938;15.520;2022-10-16T05:47:00;14.80;92.64
70421;SHT31;57848;51.938;15.520;2022-10-16T05:49:25;14.79;92.66
70421;SHT31;57848;51.938;15.520;2022-10-16T05:51:50;14.82;92.60
70421;SHT31;57848;51.938;15.520;2022-10-16T05:54:16;14.79;92.49
70421;SHT31;57848;51.938;15.520;2022-10-16T05:56:41;14.72;92.72
70421;SHT31;57848;51.938;15.520;2022-10-16T05:59:07;14.80;92.67
70421;SHT31;57848;51.938;15.520;2022-10-16T06:01:32;14.76;92.63
70421;SHT31;57848;51.938;15.520;2022-10-16T06:03:58;14.71;92.83
70421;SHT31;57848;51.938;15.520;2022-10-16T06:06:26;14.72;92.77
70421;SHT31;57848;51.938;15.520;2022-10-16T06:08:53;14.76;92.72
70421;SHT31;57848;51.938;15.520;2022-10-16T06:11:22;14.78;92.71
70421;SHT31;57848;51.938;15.520;2022-10-16T06:13:51;14.82;92.60
70421;SHT31;57848;51.938;15.520;2022-10-16T06:16:16;14.88;92.51
70421;SHT31;57848;51.938;15.520;2022-10-16T06:18:42;14.89;92.47
70421;SHT31;57848;51.938;15.520;2022-10-16T06:21:09;14.90;92.44
70421;SHT31;57848;51.938;15.520;2022-10-16T06:23:35;15.04;92.11
70421;SHT31;57848;51.938;15.520;2022-10-16T06:26:05;15.07;91.85
70421;SHT31;57848;51.938;15.520;2022-10-16T06:28:31;15.09;91.90
70421;SHT31;57848;51.938;15.520;2022-10-16T06:31:03;15.10;91.85
70421;SHT31;57848;51.938;15.520;2022-10-16T06:33:29;15.16;91.73
70421;SHT31;57848;51.938;15.520;2022-10-16T06:36:04;15.33;91.28
70421;SHT31;57848;51.938;15.520;2022-10-16T06:38:30;15.24;91.58
70421;SHT31;57848;51.938;15.520;2022-10-16T06:40:55;15.27;91.53
70421;SHT31;57848;51.938;15.520;2022-10-16T06:43:21;15.29;91.40
70421;SHT31;57848;51.938;15.520;2022-10-16T06:45:56;15.36;91.22
70421;SHT31;57848;51.938;15.520;2022-10-16T06:48:23;15.31;91.29
70421;SHT31;57848;51.938;15.520;2022-10-16T06:50:59;15.37;91.28
70421;SHT31;57848;51.938;15.520;2022-10-16T06:53:26;15.37;91.20
70421;SHT31;57848;51.938;15.520;2022-10-16T06:55:52;15.41;90.99
70421;SHT31;57848;51.938;15.520;2022-10-16T06:58:18;15.33;91.15
70421;SHT31;57848;51.938;15.520;2022-10-16T07:00:43;15.27;91.28
70421;SHT31;57848;51.938;15.520;2022-10-16T07:03:09;15.19;91.40
70421;SHT31;57848;51.938;15.520;2022-10-16T07:05:41;15.14;91.76
70421;SHT31;57848;51.938;15.520;2022-10-16T07:08:06;15.09;91.86
70421;SHT31;57848;51.938;15.520;2022-10-16T07:10:32;15.06;91.99
70421;SHT31;57848;51.938;15.520;2022-10-16T07:12:57;15.17;91.76
70421;SHT31;57848;51.938;15.520;2022-10-16T07:15:24;15.09;91.92
70421;SHT31;57848;51.938;15.520;2022-10-16T07:17:50;15.09;92.08
70421;SHT31;57848;51.938;15.520;2022-10-16T07:20:15;15.09;92.01
70421;SHT31;57848;51.938;15.520;2022-10-16T07:22:41;15.22;91.62
70421;SHT31;57848;51.938;15.520;2022-10-16T07:25:06;15.20;91.77
70421;SHT31;57848;51.938;15.520;2022-10-16T07:27:32;15.24;91.86
70421;SHT31;57848;51.938;15.520;2022-10-16T07:29:57;15.23;91.84
70421;SHT31;57848;51.938;15.520;2022-10-16T07:32:22;15.30;91.76
70421;SHT31;57848;51.938;15.520;2022-10-16T07:34:48;15.41;91.54
70421;SHT31;57848;51.938;15.520;2022-10-16T07:37:14;15.58;91.32
70421;SHT31;57848;51.938;15.520;2022-10-16T07:39:39;15.70;91.00
70421;SHT31;57848;51.938;15.520;2022-10-16T07:42:04;15.81;90.82
70421;SHT31;57848;51.938;15.520;2022-10-16T07:44:30;15.98;90.43
70421;SHT31;57848;51.938;15.520;2022-10-16T07:46:55;16.12;90.20
70421;SHT31;57848;51.938;15.520;2022-10-16T07:49:20;16.34;89.25
70421;SHT31;57848;51.938;15.520;2022-10-16T07:51:46;16.50;88.73
70421;SHT31;57848;51.938;15.520;2022-10-16T07:54:11;16.71;88.42
70421;SHT31;57848;51.938;15.520;2022-10-16T07:56:36;16.77;88.24
70421;SHT31;57848;51.938;15.520;2022-10-16T07:59:02;16.80;88.03
70421;SHT31;57848;51.938;15.520;2022-10-16T08:01:27;16.83;87.65
70421;SHT31;57848;51.938;15.520;2022-10-16T08:03:53;16.84;87.57
70421;SHT31;57848;51.938;15.520;2022-10-16T08:06:20;16.85;87.60
70421;SHT31;57848;51.938;15.520;2022-10-16T08:08:46;16.85;87.81
70421;SHT31;57848;51.938;15.520;2022-10-16T08:11:11;16.92;87.50
70421;SHT31;57848;51.938;15.520;2022-10-16T08:13:37;16.95;87.49
70421;SHT31;57848;51.938;15.520;2022-10-16T08:16:03;17.01;87.24
70421;SHT31;57848;51.938;15.520;2022-10-16T08:18:36;16.95;87.16
70421;SHT31;57848;51.938;15.520;2022-10-16T08:21:02;17.00;87.25
70421;SHT31;57848;51.938;15.520;2022-10-16T08:23:28;17.08;87.12
70421;SHT31;57848;51.938;15.520;2022-10-16T08:25:54;17.15;87.04
70421;SHT31;57848;51.938;15.520;2022-10-16T08:28:20;17.21;87.14
70421;SHT31;57848;51.938;15.520;2022-10-16T08:30:45;17.18;87.03
70421;SHT31;57848;51.938;15.520;2022-10-16T08:33:11;17.22;87.23
70421;SHT31;57848;51.938;15.520;2022-10-16T08:35:36;17.29;86.83
70421;SHT31;57848;51.938;15.520;2022-10-16T08:38:05;17.31;86.70
70421;SHT31;57848;51.938;15.520;2022-10-16T08:40:32;17.42;86.34
70421;SHT31;57848;51.938;15.520;2022-10-16T08:45:34;17.46;86.09
70421;SHT31;57848;51.938;15.520;2022-10-16T08:48:20;17.52;85.89
70421;SHT31;57848;51.938;15.520;2022-10-16T08:50:50;17.56;86.14
70421;SHT31;57848;51.938;15.520;2022-10-16T08:53:22;17.62;85.42
70421;SHT31;57848;51.938;15.520;2022-10-16T08:55:51;17.61;85.04
70421;SHT31;57848;51.938;15.520;2022-10-16T08:58:22;17.66;85.23
70421;SHT31;57848;51.938;15.520;2022-10-16T09:01:00;17.82;85.19
70421;SHT31;57848;51.938;15.520;2022-10-16T09:11:56;18.99;81.13
70421;SHT31;57848;51.938;15.520;2022-10-16T09:14:34;19.06;79.93
70421;SHT31;57848;51.938;15.520;2022-10-16T09:19:47;19.51;78.23
70421;SHT31;57848;51.938;15.520;2022-10-16T09:22:16;19.51;78.06
70421;SHT31;57848;51.938;15.520;2022-10-16T09:24:42;19.37;77.48
70421;SHT31;57848;51.938;15.520;2022-10-16T09:27:11;19.43;76.87
70421;SHT31;57848;51.938;15.520;2022-10-16T09:29:38;19.53;76.66
70421;SHT31;57848;51.938;15.520;2022-10-16T09:32:12;19.43;76.84
70421;SHT31;57848;51.938;15.520;2022-10-16T09:34:42;19.61;75.95
70421;SHT31;57848;51.938;15.520;2022-10-16T09:37:10;19.56;75.84
70421;SHT31;57848;51.938;15.520;2022-10-16T09:39:53;19.47;75.86
70421;SHT31;57848;51.938;15.520;2022-10-16T09:42:27;19.38;76.23
70421;SHT31;57848;51.938;15.520;2022-10-16T09:44:56;19.28;76.89
70421;SHT31;57848;51.938;15.520;2022-10-16T09:47:23;19.27;76.87
70421;SHT31;57848;51.938;15.520;2022-10-16T09:49:58;19.15;77.47
70421;SHT31;57848;51.938;15.520;2022-10-16T09:52:27;19.15;78.24
70421;SHT31;57848;51.938;15.520;2022-10-16T09:57:22;19.47;77.99
70421;SHT31;57848;51.938;15.520;2022-10-16T09:59:52;19.96;75.86
70421;SHT31;57848;51.938;15.520;2022-10-16T10:02:26;20.21;74.93
70421;SHT31;57848;51.938;15.520;2022-10-16T10:04:53;20.52;73.30
70421;SHT31;57848;51.938;15.520;2022-10-16T10:07:42;20.98;71.75
70421;SHT31;57848;51.938;15.520;2022-10-16T10:10:22;21.18;70.43
70421;SHT31;57848;51.938;15.520;2022-10-16T10:12:48;22.03;67.79
70421;SHT31;57848;51.938;15.520;2022-10-16T10:15:14;21.81;68.28
70421;SHT31;57848;51.938;15.520;2022-10-16T10:17:57;21.12;69.82
70421;SHT31;57848;51.938;15.520;2022-10-16T10:20:27;20.81;70.77
70421;SHT31;57848;51.938;15.520;2022-10-16T10:22:53;20.73;71.52
70421;SHT31;57848;51.938;15.520;2022-10-16T10:28:18;20.76;71.89
70421;SHT31;57848;51.938;15.520;2022-10-16T10:31:26;20.86;71.09
70421;SHT31;57848;51.938;15.520;2022-10-16T10:37:23;21.01;70.26
70421;SHT31;57848;51.938;15.520;2022-10-16T10:40:03;21.11;70.31
70421;SHT31;57848;51.938;15.520;2022-10-16T10:43:08;21.99;67.39
70421;SHT31;57848;51.938;15.520;2022-10-16T10:45:42;21.79;68.08
70421;SHT31;57848;51.938;15.520;2022-10-16T10:48:20;21.32;69.01
70421;SHT31;57848;51.938;15.520;2022-10-16T10:50:52;21.01;70.59
70421;SHT31;57848;51.938;15.520;2022-10-16T11:01:56;19.95;73.40
70421;SHT31;57848;51.938;15.520;2022-10-16T11:05:29;19.92;73.82
70421;SHT31;57848;51.938;15.520;2022-10-16T11:07:52;19.95;73.37
70421;SHT31;57848;51.938;15.520;2022-10-16T11:10:26;20.19;72.74
70421;SHT31;57848;51.938;15.520;2022-10-16T11:12:58;20.53;72.01
70421;SHT31;57848;51.938;15.520;2022-10-16T11:15:36;20.72;70.91
70421;SHT31;57848;51.938;15.520;2022-10-16T11:18:16;20.81;70.15
70421;SHT31;57848;51.938;15.520;2022-10-16T11:20:56;21.07;69.92
70421;SHT31;57848;51.938;15.520;2022-10-16T11:23:31;21.10;69.79
70421;SHT31;57848;51.938;15.520;2022-10-16T11:26:02;21.01;69.93
70421;SHT31;57848;51.938;15.520;2022-10-16T11:28:33;20.94;70.44
70421;SHT31;57848;51.938;15.520;2022-10-16T11:31:11;22.39;66.15
70421;SHT31;57848;51.938;15.520;2022-10-16T11:36:51;23.26;62.62
70421;SHT31;57848;51.938;15.520;2022-10-16T11:39:21;23.78;62.73
70421;SHT31;57848;51.938;15.520;2022-10-16T11:42:05;24.77;59.92
70421;SHT31;57848;51.938;15.520;2022-10-16T11:49:56;24.28;60.58
70421;SHT31;57848;51.938;15.520;2022-10-16T11:52:26;23.82;62.16
70421;SHT31;57848;51.938;15.520;2022-10-16T11:54:57;23.12;63.84
70421;SHT31;57848;51.938;15.520;2022-10-16T11:57:28;23.22;63.93
70421;SHT31;57848;51.938;15.520;2022-10-16T12:02:44;24.15;59.96
70421;SHT31;57848;51.938;15.520;2022-10-16T12:05:29;24.21;59.18
70421;SHT31;57848;51.938;15.520;2022-10-16T12:08:13;24.32;58.72
70421;SHT31;57848;51.938;15.520;2022-10-16T12:10:42;25.07;57.30
70421;SHT31;57848;51.938;15.520;2022-10-16T12:13:33;25.26;56.17
70421;SHT31;57848;51.938;15.520;2022-10-16T12:18:37;24.79;57.40
70421;SHT31;57848;51.938;15.520;2022-10-16T12:21:02;23.82;59.83
70421;SHT31;57848;51.938;15.520;2022-10-16T12:23:36;23.18;61.68
70421;SHT31;57848;51.938;15.520;2022-10-16T12:26:02;22.69;62.59
70421;SHT31;57848;51.938;15.520;2022-10-16T12:28:30;22.69;63.07
70421;SHT31;57848;51.938;15.520;2022-10-16T12:31:07;22.57;63.73
70421;SHT31;57848;51.938;15.520;2022-10-16T12:33:41;22.55;63.84
70421;SHT31;57848;51.938;15.520;2022-10-16T12:36:13;22.45;63.75
70421;SHT31;57848;51.938;15.520;2022-10-16T12:38:48;22.54;64.29
70421;SHT31;57848;51.938;15.520;2022-10-16T12:41:28;22.25;64.95
70421;SHT31;57848;51.938;15.520;2022-10-16T12:43:54;22.07;65.39
70421;SHT31;57848;51.938;15.520;2022-10-16T12:46:35;22.03;66.21
70421;SHT31;57848;51.938;15.520;2022-10-16T12:49:36;21.93;66.17
70421;SHT31;57848;51.938;15.520;2022-10-16T12:52:03;22.04;65.94
70421;SHT31;57848;51.938;15.520;2022-10-16T12:54:34;22.06;66.27
70421;SHT31;57848;51.938;15.520;2022-10-16T12:57:36;22.13;65.79
70421;SHT31;57848;51.938;15.520;2022-10-16T13:00:11;22.25;65.56
70421;SHT31;57848;51.938;15.520;2022-10-16T13:11:52;22.14;65.58
70421;SHT31;57848;51.938;15.520;2022-10-16T13:14:19;22.24;66.02
70421;SHT31;57848;51.938;15.520;2022-10-16T13:20:03;21.90;66.87
70421;SHT31;57848;51.938;15.520;2022-10-16T13:28:06;21.39;68.59
70421;SHT31;57848;51.938;15.520;2022-10-16T13:30:54;21.48;68.42
70421;SHT31;57848;51.938;15.520;2022-10-16T13:33:33;21.49;68.53
70421;SHT31;57848;51.938;15.520;2022-10-16T13:36:00;21.44;69.08
70421;SHT31;57848;51.938;15.520;2022-10-16T13:38:28;21.51;69.29
70421;SHT31;57848;51.938;15.520;2022-10-16T13:41:01;21.39;69.47
70421;SHT31;57848;51.938;15.520;2022-10-16T13:43:35;21.31;69.64
70421;SHT31;57848;51.938;15.520;2022-10-16T13:46:07;21.24;69.87
70421;SHT31;57848;51.938;15.520;2022-10-16T13:48:36;21.18;69.77
70421;SHT31;57848;51.938;15.520;2022-10-16T13:53:33;21.01;70.66
70421;SHT31;57848;51.938;15.520;2022-10-16T13:55:59;21.03;70.27
70421;SHT31;57848;51.938;15.520;2022-10-16T13:58:25;21.04;70.57
70421;SHT31;57848;51.938;15.520;2022-10-16T14:00:59;21.03;70.75
70421;SHT31;57848;51.938;15.520;2022-10-16T14:03:26;20.97;70.77
70421;SHT31;57848;51.938;15.520;2022-10-16T14:05:55;20.94;70.74
70421;SHT31;57848;51.938;15.520;2022-10-16T14:08:22;20.87;70.83
70421;SHT31;57848;51.938;15.520;2022-10-16T14:10:50;20.87;70.86
70421;SHT31;57848;51.938;15.520;2022-10-16T14:13:19;20.88;71.04
70421;SHT31;57848;51.938;15.520;2022-10-16T14:15:49;20.79;71.20
70421;SHT31;57848;51.938;15.520;2022-10-16T14:18:24;20.67;71.50
70421;SHT31;57848;51.938;15.520;2022-10-16T14:20:50;20.70;71.90
70421;SHT31;57848;51.938;15.520;2022-10-16T14:23:23;20.70;71.92
70421;SHT31;57848;51.938;15.520;2022-10-16T14:25:53;20.62;72.13
70421;SHT31;57848;51.938;15.520;2022-10-16T14:28:20;20.59;72.46
70421;SHT31;57848;51.938;15.520;2022-10-16T14:30:55;20.63;72.08
70421;SHT31;57848;51.938;15.520;2022-10-16T14:36:01;20.57;72.23
70421;SHT31;57848;51.938;15.520;2022-10-16T14:38:26;20.46;72.68
70421;SHT31;57848;51.938;15.520;2022-10-16T14:40:52;20.39;73.00
70421;SHT31;57848;51.938;15.520;2022-10-16T14:43:22;20.35;73.14
70421;SHT31;57848;51.938;15.520;2022-10-16T14:45:52;20.35;73.25
70421;SHT31;57848;51.938;15.520;2022-10-16T14:48:18;20.36;73.60
70421;SHT31;57848;51.938;15.520;2022-10-16T14:50:44;20.30;73.35
70421;SHT31;57848;51.938;15.520;2022-10-16T14:53:11;20.29;73.67
70421;SHT31;57848;51.938;15.520;2022-10-16T14:55:37;20.30;72.88
70421;SHT31;57848;51.938;15.520;2022-10-16T14:58:03;20.25;73.41
70421;SHT31;57848;51.938;15.520;2022-10-16T15:00:28;20.16;73.78
70421;SHT31;57848;51.938;15.520;2022-10-16T15:02:54;20.12;73.60
70421;SHT31;57848;51.938;15.520;2022-10-16T15:05:28;20.12;73.69
70421;SHT31;57848;51.938;15.520;2022-10-16T15:07:54;19.99;74.29
70421;SHT31;57848;51.938;15.520;2022-10-16T15:10:22;19.89;74.20
70421;SHT31;57848;51.938;15.520;2022-10-16T15:12:47;19.82;74.60
70421;SHT31;57848;51.938;15.520;2022-10-16T15:17:51;19.71;75.19
70421;SHT31;57848;51.938;15.520;2022-10-16T15:20:22;19.56;75.92
70421;SHT31;57848;51.938;15.520;2022-10-16T15:22:47;19.49;76.25
70421;SHT31;57848;51.938;15.520;2022-10-16T15:25:53;19.41;76.41
70421;SHT31;57848;51.938;15.520;2022-10-16T15:28:20;19.38;76.62
70421;SHT31;57848;51.938;15.520;2022-10-16T15:30:46;19.30;76.91
70421;SHT31;57848;51.938;15.520;2022-10-16T15:33:23;19.26;77.12
70421;SHT31;57848;51.938;15.520;2022-10-16T15:35:51;19.19;77.39
70421;SHT31;57848;51.938;15.520;2022-10-16T15:38:18;19.13;77.48
70421;SHT31;57848;51.938;15.520;2022-10-16T15:40:45;19.02;78.11
70421;SHT31;57848;51.938;15.520;2022-10-16T15:43:10;18.95;78.45
70421;SHT31;57848;51.938;15.520;2022-10-16T15:45:36;18.85;78.90
70421;SHT31;57848;51.938;15.520;2022-10-16T15:48:02;18.84;78.90
70421;SHT31;57848;51.938;15.520;2022-10-16T15:50:29;18.71;79.37
70421;SHT31;57848;51.938;15.520;2022-10-16T15:52:55;18.65;79.89
70421;SHT31;57848;51.938;15.520;2022-10-16T15:55:20;18.52;80.12
70421;SHT31;57848;51.938;15.520;2022-10-16T15:57:46;18.48;80.24
70421;SHT31;57848;51.938;15.520;2022-10-16T16:00:16;18.48;80.26
70421;SHT31;57848;51.938;15.520;2022-10-16T16:02:43;18.45;80.43
70421;SHT31;57848;51.938;15.520;2022-10-16T16:05:10;18.37;80.58
70421;SHT31;57848;51.938;15.520;2022-10-16T16:07:36;18.41;80.51
70421;SHT31;57848;51.938;15.520;2022-10-16T16:10:03;18.37;80.65
70421;SHT31;57848;51.938;15.520;2022-10-16T16:12:29;18.30;80.87
70421;SHT31;57848;51.938;15.520;2022-10-16T16:14:54;18.23;80.96
70421;SHT31;57848;51.938;15.520;2022-10-16T16:17:20;18.18;81.19
70421;SHT31;57848;51.938;15.520;2022-10-16T16:19:45;18.28;80.94
70421;SHT31;57848;51.938;15.520;2022-10-16T16:22:11;18.11;81.35
70421;SHT31;57848;51.938;15.520;2022-10-16T16:24:36;18.07;81.56
70421;SHT31;57848;51.938;15.520;2022-10-16T16:27:01;17.96;81.82
70421;SHT31;57848;51.938;15.520;2022-10-16T16:29:27;17.87;82.16
70421;SHT31;57848;51.938;15.520;2022-10-16T16:31:52;17.77;82.40
70421;SHT31;57848;51.938;15.520;2022-10-16T16:34:26;17.69;82.66
70421;SHT31;57848;51.938;15.520;2022-10-16T16:36:51;17.61;83.00
70421;SHT31;57848;51.938;15.520;2022-10-16T16:39:17;17.62;83.28
70421;SHT31;57848;51.938;15.520;2022-10-16T16:41:43;17.61;83.30
70421;SHT31;57848;51.938;15.520;2022-10-16T16:44:11;17.52;83.54
70421;SHT31;57848;51.938;15.520;2022-10-16T16:46:37;17.49;83.76
70421;SHT31;57848;51.938;15.520;2022-10-16T16:49:05;17.39;84.01
70421;SHT31;57848;51.938;15.520;2022-10-16T16:51:31;17.34;84.18
70421;SHT31;57848;51.938;15.520;2022-10-16T16:53:57;17.31;84.34
70421;SHT31;57848;51.938;15.520;2022-10-16T16:56:23;17.27;84.52